Time;durP1;ratioP1;P1;durP2;ratioP2;P2;SDS_P1;SDS_P2;PMS_P1;PMS_P2;Temp;Humidity;BMP_temperature;BMP_pressure;BME280_temperature;BME280_humidity;BME280_pressure;Samples;Min_cycle;Max_cycle;Signal;HPM_P1;HPM_P2
2023/07/29 00:01:43;;;;;;;17.85;11.90;;;;;;;;;;5009715;28;20582;-72
2023/07/29 00:04:09;;;;;;;21.30;12.57;;;;;;;;;;4999286;28;20191;-72
2023/07/29 00:06:35;;;;;;;17.15;12.55;;;;;;;;;;5006662;28;20289;-72
2023/07/29 00:09:00;;;;;;;18.80;13.45;;;;;;;;;;5005896;28;20560;-72
2023/07/29 00:11:25;;;;;;;15.82;12.68;;;;;;;;;;5008980;28;20206;-72
2023/07/29 00:13:52;;;;;;;15.80;12.32;;;;;;;;;;5009061;28;20606;-72
2023/07/29 00:16:18;;;;;;;16.88;12.02;;;;;;;;;;5013300;28;20194;-72
2023/07/29 00:18:44;;;;;;;16.73;12.25;;;;;;;;;;5009320;28;20206;-72
2023/07/29 00:21:09;;;;;;;16.15;12.95;;;;;;;;;;5012779;28;20256;-72
2023/07/29 00:23:34;;;;;;;17.92;13.90;;;;;;;;;;5007313;28;20456;-72
2023/07/29 00:26:00;;;;;;;19.35;15.45;;;;;;;;;;4984688;28;20800;-72
2023/07/29 00:28:25;;;;;;;18.23;14.40;;;;;;;;;;5001223;28;20250;-72
2023/07/29 00:30:50;;;;;;;17.35;15.10;;;;;;;;;;5003307;28;20194;-72
2023/07/29 00:33:16;;;;;;;18.58;14.02;;;;;;;;;;4985913;28;20219;-72
2023/07/29 00:35:41;;;;;;;22.75;14.00;;;;;;;;;;5011509;28;20234;-72
2023/07/29 00:38:07;;;;;;;19.80;14.20;;;;;;;;;;5009538;28;20218;-72
2023/07/29 00:40:35;;;;;;;18.88;15.13;;;;;;;;;;5002677;28;20218;-72
2023/07/29 00:43:00;;;;;;;20.58;15.18;;;;;;;;;;5004542;28;20206;-71
2023/07/29 00:45:27;;;;;;;23.02;14.93;;;;;;;;;;5003957;28;20500;-71
2023/07/29 00:47:53;;;;;;;20.23;14.50;;;;;;;;;;5009767;28;20198;-71
2023/07/29 00:50:18;;;;;;;18.83;14.25;;;;;;;;;;5007343;28;20214;-72
2023/07/29 00:52:44;;;;;;;17.73;14.35;;;;;;;;;;5010973;28;20183;-72
2023/07/29 00:55:09;;;;;;;17.30;14.30;;;;;;;;;;4997670;28;20278;-72
2023/07/29 00:57:35;;;;;;;22.95;16.63;;;;;;;;;;5007347;28;20198;-72
2023/07/29 01:00:01;;;;;;;20.67;16.05;;;;;;;;;;5003075;28;20222;-72
2023/07/29 01:02:27;;;;;;;19.42;15.80;;;;;;;;;;5009220;28;20657;-72
2023/07/29 01:05:02;;;;;;;20.50;15.32;;;;;;;;;;5003760;28;20191;-72
2023/07/29 01:07:39;;;;;;;17.95;15.15;;;;;;;;;;5002090;28;20245;-72
2023/07/29 01:10:18;;;;;;;18.98;15.60;;;;;;;;;;4985754;28;20658;-72
2023/07/29 01:12:58;;;;;;;20.88;15.20;;;;;;;;;;5007798;28;20190;-72
2023/07/29 01:15:33;;;;;;;19.20;14.50;;;;;;;;;;5008855;28;20197;-72
2023/07/29 01:18:06;;;;;;;20.27;14.98;;;;;;;;;;5014698;28;20214;-72
2023/07/29 01:20:33;;;;;;;19.48;15.35;;;;;;;;;;4992551;28;20273;-71
2023/07/29 01:22:59;;;;;;;22.42;16.85;;;;;;;;;;5018415;28;20591;-71
2023/07/29 01:25:24;;;;;;;23.98;16.05;;;;;;;;;;5012717;28;20217;-71
2023/07/29 01:27:51;;;;;;;27.08;16.48;;;;;;;;;;4995076;28;20269;-71
2023/07/29 01:30:17;;;;;;;17.83;14.90;;;;;;;;;;5013953;28;20248;-71
2023/07/29 01:32:48;;;;;;;20.35;14.82;;;;;;;;;;5010187;28;20553;-71
2023/07/29 01:35:33;;;;;;;21.02;16.00;;;;;;;;;;5007530;28;20191;-71
2023/07/29 01:38:09;;;;;;;21.10;16.10;;;;;;;;;;4998168;28;20281;-71
2023/07/29 01:40:35;;;;;;;17.90;14.60;;;;;;;;;;5005008;28;20198;-71
2023/07/29 01:43:01;;;;;;;18.45;14.80;;;;;;;;;;5009308;28;20194;-71
2023/07/29 01:45:26;;;;;;;17.27;14.18;;;;;;;;;;4999821;28;20305;-72
2023/07/29 01:47:52;;;;;;;19.77;15.23;;;;;;;;;;5012680;28;20187;-72
2023/07/29 01:50:18;;;;;;;23.40;16.67;;;;;;;;;;5009553;28;20188;-72
2023/07/29 01:52:43;;;;;;;22.73;16.92;;;;;;;;;;5003830;28;20304;-72
2023/07/29 01:55:08;;;;;;;21.30;17.20;;;;;;;;;;4994632;28;20281;-72
2023/07/29 01:57:34;;;;;;;27.33;17.42;;;;;;;;;;5003928;28;20249;-72
2023/07/29 01:59:59;;;;;;;18.90;14.80;;;;;;;;;;4998313;28;20239;-72
2023/07/29 02:02:25;;;;;;;20.85;16.17;;;;;;;;;;5005318;28;20187;-72
2023/07/29 02:04:51;;;;;;;21.90;15.68;;;;;;;;;;4993178;28;20202;-72
2023/07/29 02:07:19;;;;;;;22.42;16.15;;;;;;;;;;4999779;28;20199;-72
2023/07/29 02:09:44;;;;;;;23.60;17.00;;;;;;;;;;5004021;28;20186;-72
2023/07/29 02:12:09;;;;;;;23.98;17.63;;;;;;;;;;4994414;28;20740;-72
2023/07/29 02:14:35;;;;;;;23.75;17.58;;;;;;;;;;5021321;28;20201;-71
2023/07/29 02:17:00;;;;;;;23.85;17.98;;;;;;;;;;5021238;28;20292;-71
2023/07/29 02:19:25;;;;;;;24.42;18.15;;;;;;;;;;4994843;28;20222;-71
2023/07/29 02:21:51;;;;;;;24.90;16.55;;;;;;;;;;5011337;28;20192;-71
2023/07/29 02:24:16;;;;;;;20.73;15.00;;;;;;;;;;5001121;28;20245;-71
2023/07/29 02:26:42;;;;;;;18.17;14.10;;;;;;;;;;5009045;28;20285;-71
2023/07/29 02:29:07;;;;;;;15.90;12.90;;;;;;;;;;5013140;28;20225;-71
2023/07/29 02:31:34;;;;;;;17.23;14.27;;;;;;;;;;5010918;28;20282;-71
2023/07/29 02:34:00;;;;;;;23.05;14.15;;;;;;;;;;4980874;28;20204;-71
2023/07/29 02:36:25;;;;;;;20.15;14.63;;;;;;;;;;5001004;28;20194;-71
2023/07/29 02:38:50;;;;;;;23.55;15.65;;;;;;;;;;5002866;28;20646;-71
2023/07/29 02:41:16;;;;;;;22.77;17.17;;;;;;;;;;5011054;28;20186;-71
2023/07/29 02:43:43;;;;;;;22.40;17.15;;;;;;;;;;5012744;28;20532;-71
2023/07/29 02:46:08;;;;;;;24.60;18.00;;;;;;;;;;5011211;28;20182;-71
2023/07/29 02:48:34;;;;;;;27.98;19.98;;;;;;;;;;5011797;28;20200;-72
2023/07/29 02:50:59;;;;;;;27.75;20.00;;;;;;;;;;5002745;28;20204;-73
2023/07/29 02:53:25;;;;;;;22.90;16.58;;;;;;;;;;5008210;28;20252;-72
2023/07/29 02:55:50;;;;;;;25.92;18.02;;;;;;;;;;5000697;28;20190;-73
2023/07/29 02:58:16;;;;;;;27.20;18.42;;;;;;;;;;4996706;28;20654;-72
2023/07/29 03:00:41;;;;;;;24.80;18.98;;;;;;;;;;4994518;28;20271;-73
2023/07/29 03:03:08;;;;;;;26.42;17.52;;;;;;;;;;5002904;28;20546;-72
2023/07/29 03:05:33;;;;;;;28.92;18.58;;;;;;;;;;5012482;28;20194;-72
2023/07/29 03:07:59;;;;;;;27.20;18.17;;;;;;;;;;5011559;28;20197;-73
2023/07/29 03:10:25;;;;;;;20.65;16.42;;;;;;;;;;4991330;28;20213;-72
2023/07/29 03:12:50;;;;;;;26.58;18.27;;;;;;;;;;4987531;28;20191;-72
2023/07/29 03:15:16;;;;;;;25.25;17.55;;;;;;;;;;5000387;28;20190;-72
2023/07/29 03:17:42;;;;;;;25.73;18.38;;;;;;;;;;5009201;28;20222;-72
2023/07/29 03:20:07;;;;;;;26.70;17.90;;;;;;;;;;5001538;28;20294;-72
2023/07/29 03:22:33;;;;;;;25.48;18.15;;;;;;;;;;5013346;28;20186;-72
2023/07/29 03:24:58;;;;;;;25.02;18.10;;;;;;;;;;5003567;28;20221;-72
2023/07/29 03:27:23;;;;;;;23.15;17.08;;;;;;;;;;4990215;28;20218;-73
2023/07/29 03:29:49;;;;;;;23.60;16.10;;;;;;;;;;5005151;28;20256;-72
2023/07/29 03:32:14;;;;;;;19.45;15.20;;;;;;;;;;4993396;28;20194;-73
2023/07/29 03:34:40;;;;;;;22.85;17.17;;;;;;;;;;4998022;28;20330;-73
2023/07/29 03:37:05;;;;;;;21.63;16.60;;;;;;;;;;5001099;28;20209;-73
2023/07/29 03:39:31;;;;;;;23.25;16.50;;;;;;;;;;4998557;28;20210;-73
2023/07/29 03:41:57;;;;;;;21.45;16.58;;;;;;;;;;5007542;28;20191;-73
2023/07/29 03:44:22;;;;;;;23.27;16.02;;;;;;;;;;5000953;28;20202;-72
2023/07/29 03:46:47;;;;;;;23.63;16.90;;;;;;;;;;4999497;28;20190;-73
2023/07/29 03:49:13;;;;;;;21.17;16.50;;;;;;;;;;4995868;28;20274;-73
2023/07/29 03:51:38;;;;;;;25.42;17.60;;;;;;;;;;5000334;28;20190;-72
2023/07/29 03:54:03;;;;;;;23.50;17.27;;;;;;;;;;4997841;28;20209;-72
2023/07/29 03:56:29;;;;;;;22.17;16.00;;;;;;;;;;4996722;28;20195;-73
2023/07/29 03:59:03;;;;;;;22.95;15.70;;;;;;;;;;5006182;28;20662;-73
2023/07/29 04:01:28;;;;;;;24.88;17.83;;;;;;;;;;4996950;28;20199;-73
2023/07/29 04:03:54;;;;;;;23.33;17.58;;;;;;;;;;5008668;28;20244;-73
2023/07/29 04:06:20;;;;;;;22.20;16.00;;;;;;;;;;5003875;28;20661;-72
2023/07/29 04:08:45;;;;;;;24.38;17.23;;;;;;;;;;4987586;28;20202;-73
2023/07/29 04:11:11;;;;;;;28.25;17.33;;;;;;;;;;5010352;28;20258;-72
2023/07/29 04:13:37;;;;;;;26.17;19.23;;;;;;;;;;5008137;28;20528;-72
2023/07/29 04:16:03;;;;;;;23.45;17.70;;;;;;;;;;5008653;28;20241;-72
2023/07/29 04:18:29;;;;;;;24.13;17.90;;;;;;;;;;5003492;28;20762;-72
2023/07/29 04:20:54;;;;;;;23.77;18.25;;;;;;;;;;5004925;28;20214;-73
2023/07/29 04:23:19;;;;;;;23.27;16.85;;;;;;;;;;5010967;28;20651;-72
2023/07/29 04:25:45;;;;;;;22.10;17.13;;;;;;;;;;4989262;28;20199;-72
2023/07/29 04:28:10;;;;;;;23.10;17.33;;;;;;;;;;5007595;28;20227;-72
2023/07/29 04:30:36;;;;;;;20.15;15.35;;;;;;;;;;5006169;28;20254;-71
2023/07/29 04:33:01;;;;;;;24.00;16.23;;;;;;;;;;5009731;28;20682;-72
2023/07/29 04:35:26;;;;;;;19.33;14.27;;;;;;;;;;4991594;28;20276;-71
2023/07/29 04:37:52;;;;;;;19.38;13.40;;;;;;;;;;5008735;28;20309;-71
2023/07/29 04:40:17;;;;;;;21.95;14.55;;;;;;;;;;5004767;28;20827;-71
2023/07/29 04:42:42;;;;;;;18.17;12.85;;;;;;;;;;5009603;28;20237;-72
2023/07/29 04:45:08;;;;;;;17.05;12.75;;;;;;;;;;4993785;28;20278;-72
2023/07/29 04:47:33;;;;;;;16.55;13.10;;;;;;;;;;5006369;28;20206;-72
2023/07/29 04:49:59;;;;;;;21.48;14.18;;;;;;;;;;4995545;28;20215;-72
2023/07/29 04:52:24;;;;;;;15.48;12.60;;;;;;;;;;5003251;28;20730;-72
2023/07/29 04:54:50;;;;;;;20.33;13.80;;;;;;;;;;4995519;28;20194;-72
2023/07/29 04:57:16;;;;;;;19.95;13.18;;;;;;;;;;5005710;28;20195;-72
2023/07/29 04:59:41;;;;;;;16.58;12.77;;;;;;;;;;5002058;28;20215;-72
2023/07/29 05:02:06;;;;;;;16.77;12.43;;;;;;;;;;5009110;28;20219;-72
2023/07/29 05:04:32;;;;;;;18.77;13.55;;;;;;;;;;4999127;28;20193;-72
2023/07/29 05:06:57;;;;;;;17.00;12.68;;;;;;;;;;5005757;28;20702;-72
2023/07/29 05:09:23;;;;;;;15.70;11.43;;;;;;;;;;5001939;28;20226;-72
2023/07/29 05:11:48;;;;;;;18.90;13.15;;;;;;;;;;5012373;28;20186;-72
2023/07/29 05:14:15;;;;;;;17.88;10.93;;;;;;;;;;5006178;28;20210;-72
2023/07/29 05:16:40;;;;;;;15.07;11.95;;;;;;;;;;5006575;28;20191;-73
2023/07/29 05:19:06;;;;;;;20.70;13.13;;;;;;;;;;4985473;28;20222;-73
2023/07/29 05:21:31;;;;;;;16.80;13.23;;;;;;;;;;5014160;28;20703;-72
2023/07/29 05:23:57;;;;;;;18.27;12.15;;;;;;;;;;4995361;28;20274;-72
2023/07/29 05:26:23;;;;;;;20.98;12.65;;;;;;;;;;5001174;28;20191;-73
2023/07/29 05:28:48;;;;;;;15.68;11.70;;;;;;;;;;5010472;28;20226;-71
2023/07/29 05:31:13;;;;;;;16.52;13.13;;;;;;;;;;5013155;28;20183;-72
2023/07/29 05:33:39;;;;;;;15.68;12.27;;;;;;;;;;5005494;28;20198;-72
2023/07/29 05:36:05;;;;;;;15.35;12.05;;;;;;;;;;5002433;28;20203;-71
2023/07/29 05:38:30;;;;;;;20.83;13.48;;;;;;;;;;5013125;28;20190;-72
2023/07/29 05:40:56;;;;;;;17.42;12.43;;;;;;;;;;5005633;28;20215;-72
2023/07/29 05:43:21;;;;;;;18.50;12.63;;;;;;;;;;4994895;28;20199;-72
2023/07/29 05:45:47;;;;;;;14.68;12.18;;;;;;;;;;5009222;28;20252;-72
2023/07/29 05:48:12;;;;;;;17.60;13.00;;;;;;;;;;4991650;28;20187;-73
2023/07/29 05:50:37;;;;;;;15.90;12.55;;;;;;;;;;5008784;28;20187;-72
2023/07/29 05:53:03;;;;;;;18.40;13.32;;;;;;;;;;5003672;28;20286;-73
2023/07/29 05:55:29;;;;;;;17.13;13.00;;;;;;;;;;5008127;28;20203;-73
2023/07/29 05:57:54;;;;;;;19.27;13.40;;;;;;;;;;5008859;28;20245;-73
2023/07/29 06:00:20;;;;;;;17.98;13.48;;;;;;;;;;5004983;28;20215;-72
2023/07/29 06:02:45;;;;;;;17.75;13.23;;;;;;;;;;4999291;28;20271;-72
2023/07/29 06:05:11;;;;;;;14.88;12.02;;;;;;;;;;5007166;28;20199;-72
2023/07/29 06:07:36;;;;;;;18.90;12.00;;;;;;;;;;5005572;28;20282;-73
2023/07/29 06:10:02;;;;;;;14.02;10.88;;;;;;;;;;5007219;28;20608;-72
2023/07/29 06:12:27;;;;;;;15.52;10.55;;;;;;;;;;5006632;28;20278;-72
2023/07/29 06:14:53;;;;;;;12.40;9.50;;;;;;;;;;5006243;28;20545;-74
2023/07/29 06:17:18;;;;;;;14.00;9.73;;;;;;;;;;5005094;28;20313;-72
2023/07/29 06:19:43;;;;;;;11.18;9.55;;;;;;;;;;5010898;28;20206;-73
2023/07/29 06:22:10;;;;;;;14.60;9.32;;;;;;;;;;5008679;28;20281;-72
2023/07/29 06:24:35;;;;;;;13.18;9.70;;;;;;;;;;5007187;28;20201;-73
2023/07/29 06:27:01;;;;;;;12.55;8.77;;;;;;;;;;5010667;28;20657;-73
2023/07/29 06:29:26;;;;;;;10.57;7.60;;;;;;;;;;5009453;28;20226;-72
2023/07/29 06:31:51;;;;;;;11.93;7.55;;;;;;;;;;4989277;28;20196;-73
2023/07/29 06:34:20;;;;;;;10.65;7.53;;;;;;;;;;5009348;28;20654;-74
2023/07/29 06:36:45;;;;;;;8.32;6.97;;;;;;;;;;5002834;28;20217;-74
2023/07/29 06:39:11;;;;;;;7.50;5.93;;;;;;;;;;5008843;28;20682;-73
2023/07/29 06:41:36;;;;;;;8.13;5.88;;;;;;;;;;5009511;28;20194;-73
2023/07/29 06:44:01;;;;;;;8.57;5.90;;;;;;;;;;5002483;28;20190;-71
2023/07/29 06:46:27;;;;;;;7.75;5.25;;;;;;;;;;5000103;28;20291;-72
2023/07/29 06:48:52;;;;;;;5.25;4.65;;;;;;;;;;5000638;28;20346;-72
2023/07/29 06:51:17;;;;;;;6.53;4.05;;;;;;;;;;5004465;28;20202;-73
2023/07/29 06:53:43;;;;;;;6.85;4.03;;;;;;;;;;5006217;28;20253;-72
2023/07/29 06:56:08;;;;;;;6.07;4.38;;;;;;;;;;4994145;28;20219;-72
2023/07/29 06:58:34;;;;;;;6.40;4.15;;;;;;;;;;5001393;28;20207;-72
2023/07/29 07:01:00;;;;;;;7.68;4.00;;;;;;;;;;4988291;28;20589;-72
2023/07/29 07:03:25;;;;;;;5.68;4.00;;;;;;;;;;4990991;28;20206;-72
2023/07/29 07:05:50;;;;;;;6.00;4.22;;;;;;;;;;5002523;28;20612;-73
2023/07/29 07:08:16;;;;;;;6.47;4.15;;;;;;;;;;4996603;28;20199;-72
2023/07/29 07:10:41;;;;;;;8.10;4.20;;;;;;;;;;4996105;28;20827;-72
2023/07/29 07:13:07;;;;;;;5.63;3.78;;;;;;;;;;4999186;28;20689;-72
2023/07/29 07:15:32;;;;;;;5.70;3.75;;;;;;;;;;5010944;28;20243;-72
2023/07/29 07:17:57;;;;;;;7.22;3.95;;;;;;;;;;4999059;28;20230;-73
2023/07/29 07:20:23;;;;;;;8.35;4.40;;;;;;;;;;5003540;28;20303;-71
2023/07/29 07:22:48;;;;;;;6.07;4.15;;;;;;;;;;5009013;28;20219;-73
2023/07/29 07:25:13;;;;;;;6.00;4.25;;;;;;;;;;4994298;28;20186;-72
2023/07/29 07:27:39;;;;;;;8.60;4.38;;;;;;;;;;5005093;28;20258;-72
2023/07/29 07:30:05;;;;;;;7.03;4.97;;;;;;;;;;5007172;28;20191;-72
2023/07/29 07:32:30;;;;;;;7.22;4.53;;;;;;;;;;5004742;28;20218;-72
2023/07/29 07:34:56;;;;;;;9.15;5.15;;;;;;;;;;5004713;28;20191;-74
2023/07/29 07:37:21;;;;;;;11.15;5.68;;;;;;;;;;5006261;28;20281;-72
2023/07/29 07:39:46;;;;;;;8.40;3.95;;;;;;;;;;5008965;28;20502;-70
2023/07/29 07:42:12;;;;;;;7.03;4.45;;;;;;;;;;5006108;28;20224;-71
2023/07/29 07:44:37;;;;;;;16.45;4.57;;;;;;;;;;5005725;28;20190;-74
2023/07/29 07:47:03;;;;;;;8.88;4.43;;;;;;;;;;5004322;28;20190;-73
2023/07/29 07:49:28;;;;;;;9.80;4.55;;;;;;;;;;5000143;28;20190;-73
2023/07/29 07:51:54;;;;;;;6.82;4.28;;;;;;;;;;5010263;28;20244;-73
2023/07/29 07:54:19;;;;;;;5.43;3.97;;;;;;;;;;5008736;28;20198;-73
2023/07/29 07:56:45;;;;;;;8.38;5.07;;;;;;;;;;5009955;28;20195;-73
2023/07/29 07:59:10;;;;;;;6.22;4.05;;;;;;;;;;5005380;28;20213;-72
2023/07/29 08:01:39;;;;;;;6.43;4.20;;;;;;;;;;5012638;28;20423;-72
2023/07/29 08:04:05;;;;;;;5.43;4.03;;;;;;;;;;5006448;28;20666;-72
2023/07/29 08:06:31;;;;;;;6.47;4.10;;;;;;;;;;5003249;28;20274;-72
2023/07/29 08:08:57;;;;;;;6.97;4.38;;;;;;;;;;5002441;28;20191;-72
2023/07/29 08:11:22;;;;;;;9.35;4.70;;;;;;;;;;5008900;28;20536;-72
2023/07/29 08:13:47;;;;;;;5.70;3.63;;;;;;;;;;5004243;28;20261;-72
2023/07/29 08:16:13;;;;;;;8.63;3.60;;;;;;;;;;4986059;28;20191;-72
2023/07/29 08:18:38;;;;;;;5.25;3.63;;;;;;;;;;5004388;28;20245;-72
2023/07/29 08:21:04;;;;;;;9.27;4.22;;;;;;;;;;5001360;28;20682;-72
2023/07/29 08:23:30;;;;;;;6.95;3.60;;;;;;;;;;5008380;28;20191;-72
2023/07/29 08:26:01;;;;;;;10.50;3.58;;;;;;;;;;5016135;28;20657;-71
2023/07/29 08:28:30;;;;;;;6.82;4.00;;;;;;;;;;5006071;28;20227;-72
2023/07/29 08:30:56;;;;;;;4.30;3.00;;;;;;;;;;4993740;28;20188;-73
2023/07/29 08:33:22;;;;;;;7.97;3.55;;;;;;;;;;5004240;28;20611;-72
2023/07/29 08:35:47;;;;;;;6.80;3.05;;;;;;;;;;4989150;28;20230;-72
2023/07/29 08:38:13;;;;;;;5.18;2.90;;;;;;;;;;4993677;28;20250;-71
2023/07/29 08:40:45;;;;;;;7.68;3.30;;;;;;;;;;4967737;28;20636;-73
2023/07/29 08:43:13;;;;;;;5.93;2.88;;;;;;;;;;4990964;28;20650;-73
2023/07/29 08:45:40;;;;;;;4.18;2.58;;;;;;;;;;4987680;28;20209;-73
2023/07/29 08:48:09;;;;;;;3.17;2.33;;;;;;;;;;4997105;28;20690;-73
2023/07/29 08:50:36;;;;;;;4.82;2.70;;;;;;;;;;4992365;28;20273;-73
2023/07/29 08:53:05;;;;;;;4.20;2.60;;;;;;;;;;4997796;28;20651;-73
2023/07/29 08:55:31;;;;;;;4.82;2.63;;;;;;;;;;4989833;28;20595;-73
2023/07/29 08:57:58;;;;;;;4.90;2.53;;;;;;;;;;4982871;28;20247;-73
2023/07/29 09:00:25;;;;;;;4.40;2.45;;;;;;;;;;4985239;28;20223;-72
2023/07/29 09:02:51;;;;;;;4.85;2.78;;;;;;;;;;4989945;28;20556;-73
2023/07/29 09:05:16;;;;;;;6.97;2.47;;;;;;;;;;4986764;28;20191;-73
2023/07/29 09:07:43;;;;;;;6.65;2.80;;;;;;;;;;4981923;28;20235;-71
2023/07/29 09:10:12;;;;;;;2.92;2.42;;;;;;;;;;4984742;28;20195;-72
2023/07/29 09:12:38;;;;;;;3.65;2.30;;;;;;;;;;4988224;28;20207;-71
2023/07/29 09:15:04;;;;;;;6.68;2.45;;;;;;;;;;4986468;28;20189;-72
2023/07/29 09:17:35;;;;;;;2.92;2.10;;;;;;;;;;4982279;28;20277;-73
2023/07/29 09:20:01;;;;;;;3.63;2.10;;;;;;;;;;4983430;28;20223;-72
2023/07/29 09:22:27;;;;;;;3.42;2.30;;;;;;;;;;4983325;28;20195;-72
2023/07/29 09:24:53;;;;;;;2.55;2.28;;;;;;;;;;4990193;28;20549;-71
2023/07/29 09:27:31;;;;;;;3.85;1.92;;;;;;;;;;4986927;28;20223;-72
2023/07/29 09:29:57;;;;;;;5.40;2.28;;;;;;;;;;5003329;28;20191;-73
2023/07/29 09:32:24;;;;;;;4.97;2.53;;;;;;;;;;5002886;28;20740;-72
2023/07/29 09:34:51;;;;;;;5.55;2.95;;;;;;;;;;5006505;28;20248;-72
2023/07/29 09:37:25;;;;;;;6.00;3.10;;;;;;;;;;5005779;28;20200;-74
2023/07/29 09:39:51;;;;;;;4.63;2.90;;;;;;;;;;5004940;28;20214;-71
2023/07/29 09:42:22;;;;;;;4.63;2.75;;;;;;;;;;5005846;28;20531;-71
2023/07/29 09:44:49;;;;;;;4.38;3.00;;;;;;;;;;5012502;28;20187;-72
2023/07/29 09:47:23;;;;;;;6.32;2.92;;;;;;;;;;5008879;28;20240;-71
2023/07/29 09:49:49;;;;;;;3.78;2.78;;;;;;;;;;5001188;28;20182;-72
2023/07/29 09:52:16;;;;;;;3.80;2.80;;;;;;;;;;5005350;28;20198;-71
2023/07/29 09:54:43;;;;;;;3.95;2.97;;;;;;;;;;5012095;28;20182;-74
2023/07/29 09:57:09;;;;;;;3.00;2.50;;;;;;;;;;5007959;28;20194;-70
2023/07/29 09:59:35;;;;;;;3.38;2.33;;;;;;;;;;5007205;28;20213;-72
2023/07/29 10:02:00;;;;;;;5.65;2.60;;;;;;;;;;5006266;28;20525;-73
2023/07/29 10:04:27;;;;;;;3.40;2.50;;;;;;;;;;4997901;28;20262;-71
2023/07/29 10:06:53;;;;;;;2.22;2.03;;;;;;;;;;5002337;28;20541;-72
2023/07/29 10:09:20;;;;;;;3.47;2.50;;;;;;;;;;4991779;28;20185;-72
2023/07/29 10:11:45;;;;;;;4.25;2.65;;;;;;;;;;5002531;28;20183;-72
2023/07/29 10:14:11;;;;;;;2.67;2.05;;;;;;;;;;5002188;28;20193;-71
2023/07/29 10:16:37;;;;;;;5.00;2.63;;;;;;;;;;5001974;28;20373;-71
2023/07/29 10:19:04;;;;;;;6.28;2.80;;;;;;;;;;5006954;28;20700;-70
2023/07/29 10:21:30;;;;;;;3.83;2.75;;;;;;;;;;4996021;28;20194;-74
2023/07/29 10:24:02;;;;;;;5.97;2.67;;;;;;;;;;4993666;28;20686;-72
2023/07/29 10:26:29;;;;;;;3.22;2.65;;;;;;;;;;4982484;28;20184;-71
2023/07/29 10:29:00;;;;;;;3.10;2.30;;;;;;;;;;4995135;28;20241;-71
2023/07/29 10:31:29;;;;;;;3.08;2.33;;;;;;;;;;5007760;28;20202;-72
2023/07/29 10:33:54;;;;;;;5.07;3.00;;;;;;;;;;4986964;28;20736;-71
2023/07/29 10:36:20;;;;;;;5.32;2.58;;;;;;;;;;5007685;28;20269;-70
2023/07/29 10:38:46;;;;;;;3.65;2.47;;;;;;;;;;5007080;28;20191;-70
2023/07/29 10:41:11;;;;;;;3.22;2.92;;;;;;;;;;4997684;28;20678;-71
2023/07/29 10:43:40;;;;;;;3.45;2.95;;;;;;;;;;5001378;28;20279;-72
2023/07/29 10:46:21;;;;;;;4.75;3.03;;;;;;;;;;4998992;28;20229;-72
2023/07/29 10:48:50;;;;;;;3.20;2.83;;;;;;;;;;5001626;28;20710;-72
2023/07/29 10:51:33;;;;;;;17.67;6.30;;;;;;;;;;4997608;28;20465;-70
2023/07/29 10:54:01;;;;;;;3.75;2.47;;;;;;;;;;5002545;28;20203;-73
2023/07/29 10:56:28;;;;;;;5.60;3.20;;;;;;;;;;5007078;28;20599;-71
2023/07/29 10:59:12;;;;;;;3.40;2.55;;;;;;;;;;4993393;28;20187;-70
2023/07/29 11:01:43;;;;;;;4.00;2.88;;;;;;;;;;5009730;28;20191;-75
2023/07/29 11:04:24;;;;;;;4.15;2.40;;;;;;;;;;5006244;28;20623;-71
2023/07/29 11:07:04;;;;;;;2.95;2.50;;;;;;;;;;4981075;28;20658;-70
2023/07/29 11:09:45;;;;;;;4.32;2.38;;;;;;;;;;5012655;28;20189;-71
2023/07/29 11:12:51;;;;;;;3.55;2.80;;;;;;;;;;5006676;28;20190;-73
2023/07/29 11:15:24;;;;;;;5.03;2.25;;;;;;;;;;4995284;28;20248;-73
2023/07/29 11:17:52;;;;;;;4.95;2.75;;;;;;;;;;5003915;28;20264;-72
2023/07/29 11:20:20;;;;;;;3.65;2.70;;;;;;;;;;5003734;28;20210;-72
2023/07/29 11:22:45;;;;;;;3.13;2.60;;;;;;;;;;4991816;28;20187;-72
2023/07/29 11:25:15;;;;;;;4.28;2.78;;;;;;;;;;5008795;28;20194;-72
2023/07/29 11:27:41;;;;;;;3.58;2.42;;;;;;;;;;4999489;28;20786;-71
2023/07/29 11:30:08;;;;;;;3.22;2.38;;;;;;;;;;5003536;28;20207;-72
2023/07/29 11:32:35;;;;;;;3.53;2.42;;;;;;;;;;5010417;28;20199;-71
2023/07/29 11:35:09;;;;;;;3.60;2.80;;;;;;;;;;5008981;28;20262;-72
2023/07/29 11:37:37;;;;;;;3.63;2.75;;;;;;;;;;4304843;28;10000803;-72
2023/07/29 11:40:03;;;;;;;5.13;2.83;;;;;;;;;;5006960;28;20210;-71
2023/07/29 11:42:31;;;;;;;5.63;2.78;;;;;;;;;;5002782;28;20190;-72
2023/07/29 11:44:58;;;;;;;3.53;2.70;;;;;;;;;;4998880;28;20194;-70
2023/07/29 11:47:23;;;;;;;5.60;2.75;;;;;;;;;;5003679;28;20661;-72
2023/07/29 11:49:48;;;;;;;5.50;3.00;;;;;;;;;;5004777;28;20187;-73
2023/07/29 11:52:18;;;;;;;5.53;3.30;;;;;;;;;;4998900;28;20482;-72
2023/07/29 11:54:44;;;;;;;5.35;3.10;;;;;;;;;;5005615;28;20230;-72
2023/07/29 11:57:09;;;;;;;3.03;2.80;;;;;;;;;;5004731;28;20540;-73
2023/07/29 11:59:36;;;;;;;4.45;3.10;;;;;;;;;;4982253;28;20246;-71
2023/07/29 12:02:08;;;;;;;4.53;3.10;;;;;;;;;;5002141;28;20302;-72
2023/07/29 12:04:34;;;;;;;3.88;2.67;;;;;;;;;;5005067;28;20721;-71
2023/07/29 12:07:01;;;;;;;3.17;2.83;;;;;;;;;;4989527;28;20199;-71
2023/07/29 12:09:27;;;;;;;3.58;2.75;;;;;;;;;;5004361;28;20194;-71
2023/07/29 12:11:53;;;;;;;3.85;2.90;;;;;;;;;;4997256;28;20187;-72
2023/07/29 12:14:19;;;;;;;3.60;3.15;;;;;;;;;;5001756;28;20253;-72
2023/07/29 12:16:48;;;;;;;5.25;3.00;;;;;;;;;;5007487;28;20288;-72
2023/07/29 12:19:15;;;;;;;5.20;3.17;;;;;;;;;;4998380;28;20203;-72
2023/07/29 12:21:44;;;;;;;4.72;3.08;;;;;;;;;;4996433;28;20186;-72
2023/07/29 12:24:12;;;;;;;4.10;2.67;;;;;;;;;;5001304;28;20601;-72
2023/07/29 12:26:37;;;;;;;4.40;3.20;;;;;;;;;;4997019;28;20191;-72
2023/07/29 12:29:13;;;;;;;3.20;2.63;;;;;;;;;;4991847;28;20249;-72
2023/07/29 12:31:39;;;;;;;2.75;1.90;;;;;;;;;;5006507;28;20646;-72
2023/07/29 12:34:05;;;;;;;3.28;2.35;;;;;;;;;;5007096;28;20194;-72
2023/07/29 12:36:50;;;;;;;2.85;2.45;;;;;;;;;;4997270;28;20211;-73
2023/07/29 12:39:29;;;;;;;2.40;2.17;;;;;;;;;;4995060;28;20226;-72
2023/07/29 12:41:57;;;;;;;2.47;2.13;;;;;;;;;;4998613;28;20187;-71
2023/07/29 12:44:23;;;;;;;2.30;2.10;;;;;;;;;;4999797;28;20198;-72
2023/07/29 12:46:49;;;;;;;2.55;2.13;;;;;;;;;;5001865;28;20191;-72
2023/07/29 12:49:14;;;;;;;2.70;1.77;;;;;;;;;;5005943;28;20267;-72
2023/07/29 12:51:40;;;;;;;2.67;1.80;;;;;;;;;;4986549;28;20199;-72
2023/07/29 12:54:06;;;;;;;1.95;1.75;;;;;;;;;;4999750;28;20190;-73
2023/07/29 12:56:32;;;;;;;2.45;1.98;;;;;;;;;;5000905;28;20557;-73
2023/07/29 12:58:58;;;;;;;2.50;2.30;;;;;;;;;;4999204;28;20188;-73
2023/07/29 13:01:25;;;;;;;5.10;2.50;;;;;;;;;;5004815;28;20628;-72
2023/07/29 13:03:50;;;;;;;2.30;2.10;;;;;;;;;;5004153;28;20236;-72
2023/07/29 13:06:16;;;;;;;3.00;2.20;;;;;;;;;;5004803;28;20203;-72
2023/07/29 13:08:42;;;;;;;3.50;1.92;;;;;;;;;;4992896;28;20202;-72
2023/07/29 13:11:08;;;;;;;3.72;2.50;;;;;;;;;;5005161;28;20183;-72
2023/07/29 13:13:33;;;;;;;3.25;2.10;;;;;;;;;;5005777;28;20663;-73
2023/07/29 13:15:59;;;;;;;2.35;1.80;;;;;;;;;;5007323;28;20187;-73
2023/07/29 13:18:25;;;;;;;3.95;1.83;;;;;;;;;;5009316;28;20422;-72
2023/07/29 13:20:50;;;;;;;2.80;1.85;;;;;;;;;;5009595;28;20207;-73
2023/07/29 13:23:16;;;;;;;3.88;1.85;;;;;;;;;;5010846;28;20203;-72
2023/07/29 13:25:41;;;;;;;2.15;1.75;;;;;;;;;;5009082;28;20684;-72
2023/07/29 13:28:07;;;;;;;3.03;1.60;;;;;;;;;;4997404;28;20215;-71
2023/07/29 13:30:33;;;;;;;2.85;1.33;;;;;;;;;;5007972;28;20184;-72
2023/07/29 13:32:58;;;;;;;1.73;1.27;;;;;;;;;;5008384;28;20232;-72
2023/07/29 13:35:24;;;;;;;1.58;1.20;;;;;;;;;;5006144;28;20562;-73
2023/07/29 13:37:49;;;;;;;1.52;1.27;;;;;;;;;;5009721;28;20213;-73
2023/07/29 13:40:14;;;;;;;3.17;1.10;;;;;;;;;;5007329;28;20274;-74
2023/07/29 13:42:40;;;;;;;1.45;1.00;;;;;;;;;;5006826;28;20198;-71
2023/07/29 13:45:06;;;;;;;2.00;1.23;;;;;;;;;;5005238;28;20222;-71
2023/07/29 13:47:31;;;;;;;0.90;0.68;;;;;;;;;;5006634;28;20621;-72
2023/07/29 13:49:57;;;;;;;3.83;0.90;;;;;;;;;;5001361;28;20197;-72
2023/07/29 13:52:22;;;;;;;1.67;1.10;;;;;;;;;;5000815;28;20980;-71
2023/07/29 13:54:47;;;;;;;0.73;0.73;;;;;;;;;;5003149;28;20194;-71
2023/07/29 13:57:13;;;;;;;1.53;1.10;;;;;;;;;;5008632;28;20426;-72
2023/07/29 13:59:38;;;;;;;0.80;0.80;;;;;;;;;;4989568;28;20286;-74
2023/07/29 14:02:05;;;;;;;0.93;0.80;;;;;;;;;;4996783;28;20199;-70
2023/07/29 14:04:31;;;;;;;1.40;0.90;;;;;;;;;;5006904;28;20186;-72
2023/07/29 14:06:57;;;;;;;1.10;1.05;;;;;;;;;;5005657;28;20774;-72
2023/07/29 14:09:22;;;;;;;1.50;1.10;;;;;;;;;;4981111;28;20190;-71
2023/07/29 14:11:47;;;;;;;0.98;0.90;;;;;;;;;;5000287;28;20198;-72
2023/07/29 14:14:13;;;;;;;1.25;1.08;;;;;;;;;;5006267;28;20199;-72
2023/07/29 14:16:39;;;;;;;1.35;1.10;;;;;;;;;;4998937;28;20191;-73
2023/07/29 14:19:04;;;;;;;3.22;2.85;;;;;;;;;;5007771;28;20248;-71
2023/07/29 14:21:29;;;;;;;11.10;9.27;;;;;;;;;;5000419;28;20246;-72
2023/07/29 14:23:55;;;;;;;5.40;4.40;;;;;;;;;;5008174;28;20210;-72
2023/07/29 14:26:20;;;;;;;1.17;1.08;;;;;;;;;;5006290;28;20673;-73
2023/07/29 14:28:46;;;;;;;2.55;1.15;;;;;;;;;;5006842;28;20707;-73